createdAt,value
2018-10-11T00:00:13.177Z,93.20
2018-10-11T00:02:41.826Z,93.30
2018-10-11T00:05:10.464Z,93.40
2018-10-11T00:07:39.123Z,93.50
2018-10-11T00:10:08.039Z,93.70
2018-10-11T00:12:36.655Z,93.80
2018-10-11T00:15:05.467Z,93.70
2018-10-11T00:17:34.078Z,93.90
2018-10-11T00:20:02.809Z,94.20
2018-10-11T00:22:31.414Z,93.80
2018-10-11T00:25:00.044Z,93.60
2018-10-11T00:27:28.649Z,93.60
2018-10-11T00:29:57.285Z,93.60
2018-10-11T00:32:25.873Z,93.50
2018-10-11T00:34:54.506Z,93.50
2018-10-11T00:37:23.104Z,93.40
2018-10-11T00:39:52.532Z,93.30
2018-10-11T00:42:21.194Z,93.30
2018-10-11T00:44:49.830Z,93.80
2018-10-11T00:47:18.442Z,93.90
2018-10-11T00:49:47.102Z,94.20
2018-10-11T00:52:15.726Z,94.30
2018-10-11T00:54:44.374Z,94.30
2018-10-11T00:57:13.070Z,94.10
2018-10-11T00:59:41.713Z,94.00
2018-10-11T01:02:10.332Z,93.90
2018-10-11T01:04:38.975Z,94.20
2018-10-11T01:07:07.648Z,93.90
2018-10-11T01:09:36.299Z,93.90
2018-10-11T01:12:04.955Z,93.90
2018-10-11T01:14:33.584Z,93.70
2018-10-11T01:17:02.265Z,93.80
2018-10-11T01:19:30.935Z,94.00
2018-10-11T01:21:59.539Z,93.90
2018-10-11T01:24:28.167Z,94.00
2018-10-11T01:26:56.788Z,94.00
2018-10-11T01:29:25.439Z,94.00
2018-10-11T01:31:54.342Z,94.10
2018-10-11T01:34:22.967Z,94.00
2018-10-11T01:36:51.609Z,93.60
2018-10-11T01:39:20.259Z,93.60
2018-10-11T01:41:49.012Z,93.50
2018-10-11T01:44:17.725Z,93.60
2018-10-11T01:46:46.368Z,93.60
2018-10-11T01:49:15.277Z,93.50
2018-10-11T01:51:43.996Z,93.40
2018-10-11T01:54:12.634Z,93.30
2018-10-11T01:56:41.302Z,93.40
2018-10-11T01:59:10.186Z,93.30
2018-10-11T02:01:38.841Z,93.00
2018-10-11T02:04:07.973Z,92.90
2018-10-11T02:06:36.668Z,92.70
2018-10-11T02:09:06.478Z,92.50
2018-10-11T02:11:35.083Z,92.40
2018-10-11T02:14:03.698Z,92.30
2018-10-11T02:16:32.329Z,92.40
2018-10-11T02:19:00.989Z,92.70
2018-10-11T02:21:29.626Z,93.20
2018-10-11T02:23:58.233Z,93.40
2018-10-11T02:26:26.955Z,93.50
2018-10-11T02:28:55.574Z,93.40
2018-10-11T02:31:24.244Z,93.30
2018-10-11T02:33:52.870Z,93.50
2018-10-11T02:36:21.499Z,93.70
2018-10-11T02:38:50.116Z,94.50
2018-10-11T02:41:18.740Z,94.50
2018-10-11T02:43:47.357Z,94.40
2018-10-11T02:46:15.979Z,94.30
2018-10-11T02:48:45.387Z,94.50
2018-10-11T02:51:14.040Z,94.80
2018-10-11T02:53:42.670Z,95.00
2018-10-11T02:56:11.385Z,95.00
2018-10-11T02:58:51.278Z,94.90
2018-10-11T03:01:19.989Z,95.00
2018-10-11T03:03:49.840Z,95.00
2018-10-11T03:06:18.541Z,94.90
2018-10-11T03:08:47.249Z,94.30
2018-10-11T03:11:15.963Z,94.30
2018-10-11T03:13:44.561Z,94.60
2018-10-11T03:16:13.201Z,94.30
2018-10-11T03:18:41.831Z,94.30
2018-10-11T03:21:10.476Z,94.70
2018-10-11T03:23:39.146Z,94.90
2018-10-11T03:26:07.830Z,95.40
2018-10-11T03:28:36.434Z,95.40
2018-10-11T03:31:05.080Z,95.20
2018-10-11T03:33:33.732Z,95.00
2018-10-11T03:36:02.366Z,94.90
2018-10-11T03:38:31.692Z,94.90
2018-10-11T03:41:00.335Z,94.70
2018-10-11T03:43:29.111Z,94.80
2018-10-11T03:45:57.743Z,94.80
2018-10-11T03:48:26.384Z,94.80
2018-10-11T03:50:54.983Z,95.30
2018-10-11T03:53:23.628Z,95.30
2018-10-11T03:55:52.219Z,96.40
2018-10-11T03:58:20.871Z,96.70
2018-10-11T04:00:49.491Z,97.20
2018-10-11T04:03:18.156Z,97.40
2018-10-11T04:05:46.762Z,97.10
2018-10-11T04:08:15.416Z,97.10
2018-10-11T04:10:44.028Z,97.60
2018-10-11T04:13:13.254Z,97.80
2018-10-11T04:15:41.954Z,97.50
2018-10-11T04:18:10.565Z,97.20
2018-10-11T04:20:39.404Z,97.30
2018-10-11T04:23:08.007Z,97.20
2018-10-11T04:25:36.588Z,96.70
2018-10-11T04:28:05.191Z,96.80
2018-10-11T04:30:33.765Z,96.60
2018-10-11T04:33:02.364Z,96.40
2018-10-11T04:35:30.915Z,96.20
2018-10-11T04:37:59.535Z,96.00
2018-10-11T04:40:28.095Z,95.80
2018-10-11T04:42:56.810Z,95.70
2018-10-11T04:45:25.277Z,95.40
2018-10-11T04:47:53.892Z,95.40
2018-10-11T04:50:22.884Z,95.10
2018-10-11T04:52:51.570Z,95.10
2018-10-11T04:55:20.162Z,95.30
2018-10-11T04:57:48.769Z,95.40
2018-10-11T05:00:17.354Z,95.50
2018-10-11T05:02:45.980Z,95.40
2018-10-11T05:05:14.563Z,95.50
2018-10-11T05:07:43.169Z,95.50
2018-10-11T05:10:11.775Z,95.60
2018-10-11T05:12:40.388Z,95.70
2018-10-11T05:15:09.008Z,95.70
2018-10-11T05:17:37.684Z,95.50
2018-10-11T05:20:07.017Z,95.50
2018-10-11T05:22:35.654Z,95.50
2018-10-11T05:25:04.249Z,95.60
2018-10-11T05:27:32.854Z,95.60
2018-10-11T05:30:01.468Z,96.10
2018-10-11T05:32:30.581Z,96.00
2018-10-11T05:34:59.454Z,95.90
2018-10-11T05:37:28.052Z,95.80
2018-10-11T05:39:56.812Z,96.20
2018-10-11T05:42:25.464Z,95.80
2018-10-11T05:45:03.179Z,95.90
2018-10-11T05:47:31.826Z,95.80
2018-10-11T05:50:00.490Z,95.70
2018-10-11T05:52:29.135Z,96.00
2018-10-11T05:54:58.171Z,95.90
2018-10-11T05:57:27.242Z,95.80
2018-10-11T05:59:56.561Z,95.80
2018-10-11T06:02:28.610Z,95.80
2018-10-11T06:04:57.232Z,95.70
2018-10-11T06:07:25.878Z,95.70
2018-10-11T06:09:54.908Z,95.70
2018-10-11T06:12:23.545Z,95.50
2018-10-11T06:14:53.479Z,95.50
2018-10-11T06:17:22.987Z,95.20
2018-10-11T06:19:51.653Z,95.20
2018-10-11T06:22:20.292Z,95.40
2018-10-11T06:24:48.965Z,95.60
2018-10-11T06:27:17.560Z,95.30
2018-10-11T06:29:46.239Z,95.10
2018-10-11T06:32:14.880Z,95.00
2018-10-11T06:34:43.533Z,95.10
2018-10-11T06:37:12.128Z,95.10
2018-10-11T06:39:40.777Z,95.00
2018-10-11T06:42:09.434Z,95.10
2018-10-11T06:44:38.068Z,95.30
2018-10-11T06:47:06.671Z,95.40
2018-10-11T06:49:35.338Z,95.40
2018-10-11T06:52:03.997Z,95.40
2018-10-11T06:54:32.644Z,95.20
2018-10-11T06:57:01.196Z,95.20
2018-10-11T06:59:29.821Z,95.30
2018-10-11T07:01:59.073Z,95.30
2018-10-11T07:04:27.672Z,95.30
2018-10-11T07:06:56.222Z,95.20
2018-10-11T07:09:24.882Z,95.20
2018-10-11T07:11:53.446Z,95.40
2018-10-11T07:14:22.983Z,95.50
2018-10-11T07:16:51.562Z,95.60
2018-10-11T07:19:20.163Z,95.60
2018-10-11T07:21:48.765Z,95.70
2018-10-11T07:24:17.307Z,95.60
2018-10-11T07:26:45.895Z,95.50
2018-10-11T07:29:14.486Z,95.20
2018-10-11T07:31:43.096Z,95.00
2018-10-11T07:34:11.648Z,94.70
2018-10-11T07:36:40.200Z,94.50
2018-10-11T07:39:11.564Z,94.20
2018-10-11T07:41:40.133Z,94.00
2018-10-11T07:44:09.137Z,93.70
2018-10-11T07:46:38.266Z,93.60
2018-10-11T07:49:07.748Z,93.30
2018-10-11T07:51:36.307Z,93.10
2018-10-11T07:54:04.965Z,92.70
2018-10-11T07:56:34.026Z,92.30
2018-10-11T07:59:02.781Z,91.90
2018-10-11T08:01:31.986Z,91.50
2018-10-11T08:04:00.504Z,91.40
2018-10-11T08:06:29.672Z,91.40
2018-10-11T08:08:58.241Z,91.20
2018-10-11T08:11:27.098Z,91.30
2018-10-11T08:13:56.088Z,91.40
2018-10-11T08:16:24.804Z,91.40
2018-10-11T08:18:53.300Z,91.40
2018-10-11T08:21:21.927Z,91.10
2018-10-11T08:23:50.568Z,90.80
2018-10-11T08:26:19.421Z,90.60
2018-10-11T08:28:47.664Z,90.50
2018-10-11T08:31:16.229Z,90.50
2018-10-11T08:33:44.794Z,90.00
2018-10-11T08:36:13.349Z,89.40
2018-10-11T08:38:41.929Z,89.20
2018-10-11T08:41:10.497Z,89.00
2018-10-11T08:43:39.198Z,88.60
2018-10-11T08:46:07.742Z,88.30
2018-10-11T08:48:36.321Z,88.50
2018-10-11T08:51:04.931Z,87.60
2018-10-11T08:53:33.535Z,87.30
2018-10-11T08:56:02.175Z,87.00
2018-10-11T08:58:30.654Z,86.70
2018-10-11T09:00:59.230Z,86.00
2018-10-11T09:03:27.803Z,85.90
2018-10-11T09:05:56.338Z,85.70
2018-10-11T09:08:24.920Z,85.70
2018-10-11T09:10:53.448Z,84.50
2018-10-11T09:13:22.056Z,84.40
2018-10-11T09:15:50.588Z,84.20
2018-10-11T09:18:19.384Z,84.60
2018-10-11T09:20:48.252Z,85.20
2018-10-11T09:23:16.851Z,85.30
2018-10-11T09:25:45.483Z,85.60
2018-10-11T09:28:14.091Z,85.40
2018-10-11T09:30:42.683Z,85.10
2018-10-11T09:33:11.527Z,85.40
2018-10-11T09:35:40.079Z,85.20
2018-10-11T09:38:08.674Z,85.30
2018-10-11T09:40:37.250Z,84.80
2018-10-11T09:43:06.004Z,84.20
2018-10-11T09:45:34.541Z,84.40
2018-10-11T09:48:03.124Z,84.50
2018-10-11T09:50:31.646Z,83.70
2018-10-11T09:53:00.264Z,83.00
2018-10-11T09:55:28.790Z,82.20
2018-10-11T09:57:57.357Z,82.10
2018-10-11T10:00:31.337Z,82.50
2018-10-11T10:02:59.883Z,82.50
2018-10-11T10:05:28.472Z,81.80
2018-10-11T10:07:57.060Z,81.00
2018-10-11T10:10:25.632Z,80.70
2018-10-11T10:12:54.244Z,80.50
2018-10-11T10:15:22.798Z,80.60
2018-10-11T10:17:51.392Z,80.60
2018-10-11T10:20:19.929Z,81.00
2018-10-11T10:22:48.583Z,81.00
2018-10-11T10:25:17.131Z,81.10
2018-10-11T10:27:45.681Z,81.10
2018-10-11T10:30:19.621Z,81.30
2018-10-11T10:32:48.189Z,81.50
2018-10-11T10:35:16.711Z,81.60
2018-10-11T10:37:45.313Z,81.90
2018-10-11T10:40:13.863Z,81.90
2018-10-11T10:42:42.415Z,81.90
2018-10-11T10:45:10.968Z,81.60
2018-10-11T10:47:40.190Z,81.50
2018-10-11T10:50:08.771Z,81.30
2018-10-11T10:52:37.304Z,80.90
2018-10-11T10:55:05.951Z,80.60
2018-10-11T10:57:34.491Z,80.30
2018-10-11T11:00:03.085Z,79.80
2018-10-11T11:02:31.662Z,79.30
2018-10-11T11:05:00.175Z,78.60
2018-10-11T11:07:28.795Z,78.30
2018-10-11T11:09:57.336Z,78.40
2018-10-11T11:12:25.873Z,78.20
2018-10-11T11:14:54.435Z,78.20
2018-10-11T11:17:23.281Z,78.00
2018-10-11T11:19:51.857Z,78.10
2018-10-11T11:22:20.389Z,78.00
2018-10-11T11:24:48.988Z,77.80
2018-10-11T11:27:17.623Z,77.40
2018-10-11T11:29:46.219Z,76.90
2018-10-11T11:32:14.793Z,76.30
2018-10-11T11:34:43.363Z,75.80
2018-10-11T11:37:11.915Z,75.30
2018-10-11T11:39:40.475Z,74.20
2018-10-11T11:42:09.004Z,73.90
2018-10-11T11:44:37.592Z,73.30
2018-10-11T11:47:06.335Z,72.80
2018-10-11T11:49:34.908Z,72.50
2018-10-11T11:52:03.469Z,72.70
2018-10-11T11:54:32.030Z,72.80
2018-10-11T11:57:00.575Z,72.70
2018-10-11T11:59:29.144Z,72.20
2018-10-11T12:01:57.682Z,71.30
2018-10-11T12:04:26.232Z,70.80
2018-10-11T12:06:54.783Z,70.60
2018-10-11T12:09:23.381Z,69.50
2018-10-11T12:11:51.928Z,69.50
2018-10-11T12:14:20.507Z,69.50
2018-10-11T12:16:49.042Z,69.50
2018-10-11T12:19:17.598Z,69.70
2018-10-11T12:21:46.141Z,69.90
2018-10-11T12:24:14.723Z,70.20
2018-10-11T12:26:43.610Z,70.50
2018-10-11T12:29:12.180Z,71.00
2018-10-11T12:31:40.917Z,71.20
2018-10-11T12:34:09.524Z,70.80
2018-10-11T12:36:38.617Z,70.70
2018-10-11T12:39:08.552Z,70.10
2018-10-11T12:41:37.092Z,69.60
2018-10-11T12:44:05.813Z,69.60
2018-10-11T12:46:34.967Z,69.50
2018-10-11T12:49:02.985Z,69.40
2018-10-11T12:51:31.577Z,69.90
2018-10-11T12:54:00.118Z,70.10
2018-10-11T12:56:28.852Z,70.30
2018-10-11T12:58:58.330Z,70.60
2018-10-11T13:01:26.902Z,71.00
2018-10-11T13:03:55.432Z,71.30
2018-10-11T13:06:24.006Z,71.50
2018-10-11T13:08:52.555Z,72.40
2018-10-11T13:11:21.210Z,71.80
2018-10-11T13:13:52.021Z,71.90
2018-10-11T13:16:18.491Z,72.20
2018-10-11T13:18:47.068Z,72.90
2018-10-11T13:21:16.595Z,73.00
2018-10-11T13:23:45.160Z,72.80
2018-10-11T13:26:14.301Z,72.40
2018-10-11T13:28:43.724Z,71.20
2018-10-11T13:31:12.270Z,69.50
2018-10-11T13:33:40.804Z,68.10
2018-10-11T13:36:09.602Z,66.70
2018-10-11T13:38:38.340Z,65.00
2018-10-11T13:41:07.015Z,63.00
2018-10-11T13:43:35.575Z,61.90
2018-10-11T13:46:04.879Z,61.50
2018-10-11T13:48:33.428Z,61.00
2018-10-11T13:51:02.032Z,60.10
2018-10-11T13:53:30.629Z,57.40
2018-10-11T13:55:59.468Z,55.20
2018-10-11T13:58:28.088Z,53.10
2018-10-11T14:00:56.785Z,52.30
2018-10-11T14:03:25.736Z,51.30
2018-10-11T14:05:54.449Z,50.70
2018-10-11T14:08:23.486Z,49.70
2018-10-11T14:10:52.176Z,48.40
2018-10-11T14:13:20.841Z,48.10
2018-10-11T14:15:49.343Z,48.10
2018-10-11T14:18:17.976Z,48.70
2018-10-11T14:20:46.761Z,49.70
2018-10-11T14:23:15.818Z,49.30
2018-10-11T14:25:44.746Z,50.30
2018-10-11T14:28:13.290Z,51.00
2018-10-11T14:30:42.157Z,51.40
2018-10-11T14:33:10.759Z,51.50
2018-10-11T14:35:39.365Z,51.70
2018-10-11T14:38:07.922Z,52.20
2018-10-11T14:40:36.489Z,52.30
2018-10-11T14:43:05.233Z,53.00
2018-10-11T14:45:33.775Z,51.50
2018-10-11T14:48:02.396Z,50.20
2018-10-11T14:50:31.372Z,49.40
2018-10-11T14:52:59.945Z,48.30
2018-10-11T14:55:28.527Z,47.50
2018-10-11T14:57:57.123Z,47.20
2018-10-11T15:00:25.673Z,46.50
2018-10-11T15:02:54.321Z,46.20
2018-10-11T15:05:23.763Z,45.80
2018-10-11T15:07:52.316Z,46.20
2018-10-11T15:10:22.114Z,46.60
2018-10-11T15:12:50.673Z,47.00
2018-10-11T15:15:19.379Z,47.60
2018-10-11T15:17:48.502Z,48.40
2018-10-11T15:20:17.085Z,49.50
2018-10-11T15:22:45.695Z,49.70
2018-10-11T15:25:14.230Z,49.70
2018-10-11T15:27:42.882Z,48.60
2018-10-11T15:30:11.421Z,47.70
2018-10-11T15:32:39.977Z,46.40
2018-10-11T15:35:08.601Z,45.00
2018-10-11T15:37:37.161Z,44.60
2018-10-11T15:40:05.752Z,44.60
2018-10-11T15:42:34.390Z,45.10
2018-10-11T15:45:02.901Z,45.20
2018-10-11T15:47:31.679Z,44.60
2018-10-11T15:50:00.233Z,43.70
2018-10-11T15:52:28.821Z,43.10
2018-10-11T15:54:57.384Z,42.60
2018-10-11T15:57:25.981Z,42.00
2018-10-11T15:59:54.877Z,41.50
2018-10-11T16:02:23.534Z,41.10
2018-10-11T16:04:52.104Z,41.10
2018-10-11T16:07:20.668Z,41.20
2018-10-11T16:09:49.244Z,41.40
2018-10-11T16:12:17.812Z,42.40
2018-10-11T16:14:46.740Z,43.70
2018-10-11T16:17:15.419Z,45.20
2018-10-11T16:19:43.979Z,46.70
2018-10-11T16:22:12.533Z,48.00
2018-10-11T16:24:41.117Z,49.40
2018-10-11T16:27:09.693Z,50.60
2018-10-11T16:29:38.245Z,52.00
2018-10-11T16:32:07.000Z,52.80
2018-10-11T16:34:35.570Z,54.10
2018-10-11T16:37:04.114Z,55.50
2018-10-11T16:39:32.691Z,56.20
2018-10-11T16:42:01.234Z,57.00
2018-10-11T16:44:29.792Z,58.20
2018-10-11T16:46:58.358Z,59.20
2018-10-11T16:49:26.920Z,60.70
2018-10-11T16:51:55.498Z,60.90
2018-10-11T16:54:24.093Z,62.50
2018-10-11T16:56:52.632Z,65.20
2018-10-11T16:59:21.323Z,65.60
2018-10-11T17:01:50.155Z,66.20
2018-10-11T17:04:18.774Z,66.60
2018-10-11T17:06:47.332Z,67.20
2018-10-11T17:09:15.891Z,67.80
2018-10-11T17:11:44.453Z,68.30
2018-10-11T17:14:13.012Z,69.90
2018-10-11T17:16:41.582Z,70.40
2018-10-11T17:19:10.172Z,71.10
2018-10-11T17:21:38.793Z,71.50
2018-10-11T17:24:07.548Z,71.80
2018-10-11T17:26:36.199Z,72.90
2018-10-11T17:29:04.771Z,73.10
2018-10-11T17:31:33.353Z,73.70
2018-10-11T17:34:01.921Z,74.30
2018-10-11T17:36:31.074Z,74.90
2018-10-11T17:38:59.642Z,75.70
2018-10-11T17:41:28.175Z,76.60
2018-10-11T17:43:56.951Z,77.00
2018-10-11T17:46:25.472Z,78.00
2018-10-11T17:48:54.054Z,79.40
2018-10-11T17:51:22.632Z,79.50
2018-10-11T17:53:51.207Z,80.60
2018-10-11T17:56:19.762Z,80.90
2018-10-11T17:58:48.325Z,81.20
2018-10-11T18:01:16.874Z,81.70
2018-10-11T18:03:45.589Z,82.30
2018-10-11T18:06:14.164Z,82.70
2018-10-11T18:08:42.721Z,83.20
2018-10-11T18:11:11.254Z,83.40
2018-10-11T18:13:39.935Z,83.90
2018-10-11T18:16:08.552Z,84.40
2018-10-11T18:18:37.109Z,84.90
2018-10-11T18:21:05.671Z,85.20
2018-10-11T18:23:34.580Z,85.90
2018-10-11T18:26:03.116Z,86.50
2018-10-11T18:28:31.655Z,87.10
2018-10-11T18:31:00.216Z,87.40
2018-10-11T18:33:28.809Z,87.80
2018-10-11T18:35:57.621Z,88.70
2018-10-11T18:38:26.212Z,89.00
2018-10-11T18:40:54.911Z,89.30
2018-10-11T18:43:23.491Z,89.50
2018-10-11T18:45:52.211Z,90.10
2018-10-11T18:48:20.859Z,90.00
2018-10-11T18:50:49.449Z,90.30
2018-10-11T18:53:21.217Z,90.30
2018-10-11T18:55:49.922Z,90.40
2018-10-11T18:58:18.508Z,90.60
2018-10-11T19:00:48.374Z,90.60
2018-10-11T19:03:30.365Z,91.00
2018-10-11T19:06:05.401Z,91.00
2018-10-11T19:08:34.438Z,90.90
2018-10-11T19:11:03.981Z,90.70
2018-10-11T19:13:32.596Z,90.80
2018-10-11T19:18:53.002Z,90.90
2018-10-11T19:21:21.641Z,91.10
2018-10-11T19:23:50.976Z,91.00
2018-10-11T19:26:19.878Z,91.10
2018-10-11T19:28:51.862Z,91.20
2018-10-11T19:31:20.493Z,91.30
2018-10-11T19:33:49.073Z,91.60
2018-10-11T19:36:19.049Z,91.70
2018-10-11T19:38:47.730Z,91.80
2018-10-11T19:41:16.440Z,91.90
2018-10-11T19:44:01.349Z,92.20
2018-10-11T19:46:30.257Z,92.00
2018-10-11T19:48:58.914Z,92.10
2018-10-11T19:51:27.541Z,92.30
2018-10-11T19:53:56.104Z,92.40
2018-10-11T19:56:25.500Z,92.40
2018-10-11T19:58:54.050Z,93.20
2018-10-11T20:01:23.263Z,92.80
2018-10-11T20:03:51.893Z,93.10
2018-10-11T20:06:20.487Z,92.80
2018-10-11T20:08:50.990Z,92.70
2018-10-11T20:11:19.567Z,92.80
2018-10-11T20:13:48.103Z,92.80
2018-10-11T20:16:16.732Z,92.70
2018-10-11T20:19:21.390Z,92.70
2018-10-11T20:21:55.073Z,92.90
2018-10-11T20:24:23.920Z,92.70
2018-10-11T20:26:52.511Z,92.70
2018-10-11T20:29:21.113Z,92.70
2018-10-11T20:31:57.119Z,93.00
2018-10-11T20:34:25.685Z,92.80
2018-10-11T20:36:54.258Z,93.40
2018-10-11T20:39:23.199Z,94.10
2018-10-11T20:41:51.779Z,94.00
2018-10-11T20:44:20.348Z,94.50
2018-10-11T20:46:50.395Z,94.40
2018-10-11T20:49:23.425Z,94.80
2018-10-11T20:51:52.127Z,94.80
2018-10-11T20:54:21.540Z,95.10
2018-10-11T20:56:50.327Z,94.90
2018-10-11T20:59:18.900Z,95.10
2018-10-11T21:01:47.740Z,94.90
2018-10-11T21:04:16.312Z,94.70
2018-10-11T21:06:45.085Z,94.70
2018-10-11T21:09:14.125Z,94.50
2018-10-11T21:11:42.757Z,94.40
2018-10-11T21:14:11.288Z,94.50
2018-10-11T21:16:39.909Z,94.50
2018-10-11T21:19:08.642Z,94.40
2018-10-11T21:21:37.247Z,94.60
2018-10-11T21:24:05.913Z,94.50
2018-10-11T21:26:34.482Z,94.30
2018-10-11T21:29:03.063Z,94.40
2018-10-11T21:31:32.463Z,94.30
2018-10-11T21:34:01.012Z,94.00
2018-10-11T21:36:29.626Z,94.00
2018-10-11T21:38:58.183Z,94.20
2018-10-11T21:41:26.785Z,94.20
2018-10-11T21:43:55.348Z,94.10
2018-10-11T21:46:24.028Z,94.20
2018-10-11T21:48:52.581Z,94.50
2018-10-11T21:51:21.164Z,94.50
2018-10-11T21:53:49.697Z,94.70
2018-10-11T21:56:18.271Z,94.80
2018-10-11T21:58:46.830Z,95.20
2018-10-11T22:01:24.595Z,95.00
2018-10-11T22:03:53.662Z,94.90
2018-10-11T22:06:22.473Z,94.70
2018-10-11T22:08:51.043Z,94.70
2018-10-11T22:11:19.622Z,94.50
2018-10-11T22:13:48.192Z,94.50
2018-10-11T22:16:16.732Z,94.40
2018-10-11T22:18:45.284Z,94.40
2018-10-11T22:21:14.076Z,94.60
2018-10-11T22:23:43.397Z,94.40
2018-10-11T22:26:12.445Z,94.50
2018-10-11T22:28:41.800Z,94.40
2018-10-11T22:31:12.153Z,94.60
2018-10-11T22:33:41.303Z,94.50
2018-10-11T22:36:10.701Z,94.60
2018-10-11T22:38:39.290Z,94.70
2018-10-11T22:41:08.349Z,94.90
2018-10-11T22:43:36.929Z,94.90
2018-10-11T22:46:05.659Z,94.80
2018-10-11T22:48:34.232Z,94.80
2018-10-11T22:51:02.851Z,94.80
2018-10-11T22:53:31.423Z,94.70
2018-10-11T22:56:00.008Z,94.80
2018-10-11T22:58:28.574Z,94.70
2018-10-11T23:00:57.133Z,94.70
2018-10-11T23:03:25.692Z,95.20
2018-10-11T23:05:54.260Z,95.20
2018-10-11T23:08:22.811Z,95.40
2018-10-11T23:10:51.477Z,95.00
2018-10-11T23:13:20.043Z,94.90
2018-10-11T23:15:48.610Z,94.70
2018-10-11T23:18:17.201Z,94.70
2018-10-11T23:20:45.768Z,94.60
2018-10-11T23:23:14.316Z,94.60
2018-10-11T23:25:42.891Z,94.70
2018-10-11T23:28:11.428Z,95.20
2018-10-11T23:30:40.276Z,95.40
2018-10-11T23:33:08.817Z,95.40
2018-10-11T23:35:37.362Z,95.70
2018-10-11T23:38:05.972Z,96.10
2018-10-11T23:40:34.700Z,96.10
2018-10-11T23:43:03.440Z,96.00
2018-10-11T23:45:32.025Z,95.80
2018-10-11T23:48:00.611Z,95.60
2018-10-11T23:50:29.335Z,95.50
2018-10-11T23:52:57.891Z,95.40
2018-10-11T23:55:26.511Z,95.50
2018-10-11T23:57:55.053Z,95.60
